Time;durP1;ratioP1;P1;durP2;ratioP2;P2;SDS_P1;SDS_P2;PMS_P1;PMS_P2;Temp;Humidity;BMP_temperature;BMP_pressure;BME280_temperature;BME280_humidity;BME280_pressure;Samples;Min_cycle;Max_cycle;Signal;HPM_P1;HPM_P2
2021/06/06 00:01:11;;;;;;;11.65;7.33;;;;;;;10.87;87.22;94706.06;1737096;81;20966;-52
2021/06/06 00:03:41;;;;;;;8.68;7.15;;;;;;;10.90;86.89;94707.13;1695235;82;21255;-51
2021/06/06 00:06:16;;;;;;;8.03;7.17;;;;;;;10.88;86.57;94710.34;1680291;83;21009;-51
2021/06/06 00:08:43;;;;;;;11.30;7.37;;;;;;;10.90;86.10;94712.05;1681047;83;21254;-52
2021/06/06 00:11:19;;;;;;;8.58;6.92;;;;;;;10.89;85.81;94705.00;1703248;83;20956;-52
2021/06/06 00:13:46;;;;;;;8.33;7.37;;;;;;;10.90;85.83;94709.29;1696217;83;20969;-52
2021/06/06 00:16:18;;;;;;;11.35;8.63;;;;;;;10.90;85.58;94703.00;1675402;83;21025;-51
2021/06/06 00:18:44;;;;;;;8.08;7.28;;;;;;;10.88;85.29;94706.22;1679186;83;21128;-51
2021/06/06 00:21:11;;;;;;;8.35;7.60;;;;;;;10.85;85.45;94711.25;1694008;83;21026;-51
2021/06/06 00:23:38;;;;;;;8.73;7.17;;;;;;;10.86;85.32;94705.91;1711852;83;21739;-52
2021/06/06 00:26:06;;;;;;;7.50;6.78;;;;;;;10.84;85.26;94709.69;1700040;83;21106;-51
2021/06/06 00:28:33;;;;;;;8.68;7.87;;;;;;;10.82;85.15;94710.00;1684864;83;21029;-51
2021/06/06 00:31:00;;;;;;;11.43;7.67;;;;;;;10.75;85.03;94705.52;1679630;84;20950;-51
2021/06/06 00:33:27;;;;;;;9.63;7.42;;;;;;;10.72;84.80;94699.38;1676998;83;21521;-51
2021/06/06 00:35:56;;;;;;;8.63;7.35;;;;;;;10.67;84.87;94695.81;1684933;83;21535;-52
2021/06/06 00:38:23;;;;;;;13.10;7.70;;;;;;;10.66;84.79;94696.44;1684828;83;21038;-53
2021/06/06 00:40:52;;;;;;;8.43;6.45;;;;;;;10.64;85.05;94693.38;1686313;83;21026;-50
2021/06/06 00:43:19;;;;;;;8.80;7.75;;;;;;;10.58;84.49;94694.39;1693769;83;20989;-50
2021/06/06 00:45:46;;;;;;;8.23;7.50;;;;;;;10.44;84.41;94690.77;1693155;83;20997;-52
2021/06/06 00:48:14;;;;;;;8.05;6.50;;;;;;;10.34;84.53;94689.93;1715511;83;21150;-50
2021/06/06 00:50:46;;;;;;;8.90;7.97;;;;;;;10.30;84.61;94694.79;1696174;83;21423;-51
2021/06/06 00:53:19;;;;;;;8.78;7.42;;;;;;;10.30;85.05;94698.13;1685121;83;21065;-52
2021/06/06 00:55:47;;;;;;;9.80;7.17;;;;;;;10.26;84.97;94702.41;1692905;83;21071;-50
2021/06/06 00:58:14;;;;;;;10.35;7.08;;;;;;;10.24;85.04;94698.55;1656888;85;21164;-50
2021/06/06 01:00:49;;;;;;;9.18;6.40;;;;;;;10.23;84.93;94699.77;1701231;83;21009;-51
2021/06/06 01:03:17;;;;;;;7.20;6.50;;;;;;;10.22;84.64;94696.27;1702967;83;21005;-52
2021/06/06 01:05:52;;;;;;;10.40;7.15;;;;;;;10.20;84.37;94703.41;1705008;83;21035;-51
2021/06/06 01:08:20;;;;;;;8.80;7.92;;;;;;;10.15;84.41;94703.37;1691326;83;21070;-52
2021/06/06 01:10:57;;;;;;;9.75;6.90;;;;;;;10.09;84.42;94698.88;1663255;84;20963;-51
2021/06/06 01:13:46;;;;;;;8.85;6.72;;;;;;;10.06;85.06;94698.39;1710023;83;21903;-51
2021/06/06 01:16:35;;;;;;;8.80;6.45;;;;;;;10.03;84.88;94695.16;1712629;83;21079;-51
2021/06/06 01:19:18;;;;;;;7.15;6.45;;;;;;;10.03;84.70;94697.91;1686542;83;20988;-52
2021/06/06 01:22:09;;;;;;;11.75;8.73;;;;;;;10.02;84.56;94703.25;1708496;83;20992;-51
2021/06/06 01:25:08;;;;;;;12.33;8.65;;;;;;;9.98;84.47;94698.45;1667050;85;21026;-51
2021/06/06 01:27:40;;;;;;;8.98;8.08;;;;;;;9.94;84.34;94704.66;1700609;84;21171;-51
2021/06/06 01:30:21;;;;;;;12.90;8.15;;;;;;;9.89;84.05;94701.10;1701963;83;20943;-52
2021/06/06 01:33:00;;;;;;;10.08;8.58;;;;;;;9.81;84.33;94701.19;1707561;83;21480;-54
2021/06/06 01:35:35;;;;;;;9.10;7.33;;;;;;;9.75;84.28;94696.07;1705880;83;21004;-52
2021/06/06 01:38:07;;;;;;;8.50;7.35;;;;;;;9.72;84.66;94709.32;1692431;83;20996;-52
2021/06/06 01:40:36;;;;;;;7.40;6.72;;;;;;;9.72;84.68;94708.73;1698646;83;21232;-52
2021/06/06 01:43:07;;;;;;;8.55;7.65;;;;;;;9.66;84.40;94700.11;1689323;83;21088;-51
2021/06/06 01:45:41;;;;;;;9.80;8.28;;;;;;;9.58;84.43;94698.20;1703434;84;21539;-51
2021/06/06 01:48:11;;;;;;;11.03;8.05;;;;;;;9.54;84.81;94698.14;1655691;85;21156;-51
2021/06/06 01:50:46;;;;;;;10.98;8.28;;;;;;;9.50;85.12;94707.10;1630402;86;21091;-51
2021/06/06 01:53:14;;;;;;;11.25;9.08;;;;;;;9.46;85.23;94703.70;1651496;85;21869;-50
2021/06/06 01:55:47;;;;;;;12.23;7.50;;;;;;;9.43;85.31;94699.10;1698106;83;21420;-51
2021/06/06 01:58:15;;;;;;;8.08;7.28;;;;;;;9.40;85.44;94704.11;1666399;83;21060;-52
2021/06/06 02:01:10;;;;;;;9.40;7.22;;;;;;;9.36;85.70;94708.91;1690842;83;20985;-51
2021/06/06 02:03:37;;;;;;;8.75;7.85;;;;;;;9.32;85.70;94704.14;1677268;83;21001;-51
2021/06/06 02:06:08;;;;;;;12.82;8.00;;;;;;;9.29;85.73;94696.80;1706843;83;21503;-51
2021/06/06 02:08:36;;;;;;;11.45;8.18;;;;;;;9.28;85.84;94702.13;1660465;84;21025;-50
2021/06/06 02:11:24;;;;;;;13.53;8.40;;;;;;;9.25;85.81;94703.01;1688928;83;21096;-52
2021/06/06 02:14:05;;;;;;;9.13;8.30;;;;;;;9.22;86.12;94701.14;1703670;83;21012;-52
2021/06/06 02:16:40;;;;;;;10.43;9.23;;;;;;;9.17;85.73;94705.78;1697413;83;20971;-51
2021/06/06 02:19:08;;;;;;;10.15;8.35;;;;;;;9.14;86.16;94703.33;1692940;83;21163;-51
2021/06/06 02:21:39;;;;;;;11.63;9.15;;;;;;;9.12;85.99;94704.37;1702898;83;21085;-51
2021/06/06 02:24:07;;;;;;;13.78;9.55;;;;;;;9.10;86.15;94700.52;1688533;83;21135;-52
2021/06/06 02:26:55;;;;;;;11.30;10.05;;;;;;;9.10;86.02;94706.02;1681409;83;21567;-52
2021/06/06 02:29:34;;;;;;;13.13;8.55;;;;;;;9.11;86.02;94702.06;1682145;83;21069;-52
2021/06/06 02:32:34;;;;;;;8.60;7.75;;;;;;;9.07;85.72;94699.41;1699680;83;21174;-51
2021/06/06 02:35:30;;;;;;;9.15;6.90;;;;;;;9.06;85.88;94699.88;1706927;82;21016;-54
2021/06/06 02:38:21;;;;;;;8.88;7.72;;;;;;;9.11;85.94;94702.81;1706541;83;21013;-51
2021/06/06 02:40:55;;;;;;;12.95;10.93;;;;;;;9.18;86.01;94710.06;1683857;83;20978;-51
2021/06/06 02:43:34;;;;;;;19.87;9.93;;;;;;;9.20;85.87;94709.80;1682068;83;21054;-52
2021/06/06 02:46:03;;;;;;;13.15;9.98;;;;;;;9.19;85.92;94700.62;1686245;83;21243;-52
2021/06/06 02:48:41;;;;;;;20.92;13.88;;;;;;;9.19;86.18;94706.11;1691422;83;21032;-51
2021/06/06 02:51:14;;;;;;;21.42;13.50;;;;;;;9.20;86.20;94706.28;1700679;83;21015;-52
2021/06/06 02:54:02;;;;;;;27.82;14.93;;;;;;;9.19;85.99;94702.00;1705816;83;21027;-50
2021/06/06 02:56:43;;;;;;;22.73;12.65;;;;;;;9.17;86.27;94707.16;1703305;83;21004;-51
2021/06/06 02:59:26;;;;;;;18.23;12.68;;;;;;;9.12;86.07;94707.71;1705132;83;21161;-52
2021/06/06 03:01:57;;;;;;;19.17;10.43;;;;;;;9.09;86.43;94711.34;1706089;83;21031;-52
2021/06/06 03:04:29;;;;;;;17.98;11.18;;;;;;;9.10;86.39;94712.25;1691281;83;21050;-51
2021/06/06 03:07:10;;;;;;;17.10;10.72;;;;;;;9.12;86.31;94715.95;1685213;83;21573;-52
2021/06/06 03:09:40;;;;;;;17.82;10.28;;;;;;;9.10;86.43;94714.25;1686344;83;21412;-52
2021/06/06 03:12:09;;;;;;;16.07;9.88;;;;;;;9.11;86.25;94714.41;1703192;83;21151;-51
2021/06/06 03:14:41;;;;;;;16.75;10.78;;;;;;;9.08;86.25;94718.78;1689793;83;21423;-51
2021/06/06 03:17:16;;;;;;;17.23;11.78;;;;;;;9.05;86.35;94720.28;1693389;83;21123;-52
2021/06/06 03:19:47;;;;;;;15.03;11.00;;;;;;;9.03;86.74;94720.71;1666084;83;21094;-52
2021/06/06 03:22:20;;;;;;;40.80;14.55;;;;;;;9.06;86.96;94721.83;1706006;83;20985;-51
2021/06/06 03:24:53;;;;;;;32.35;13.55;;;;;;;9.06;86.97;94725.94;1704256;83;21785;-52
2021/06/06 03:27:24;;;;;;;22.97;12.40;;;;;;;9.12;87.34;94722.80;1699027;83;20955;-51
2021/06/06 03:30:34;;;;;;;22.98;12.00;;;;;;;9.20;87.33;94720.78;1698400;83;21013;-51
2021/06/06 03:33:09;;;;;;;24.20;13.40;;;;;;;9.27;87.78;94722.55;1681388;83;21498;-52
2021/06/06 03:35:37;;;;;;;14.43;9.58;;;;;;;9.40;87.62;94721.33;1686923;83;21011;-51
2021/06/06 03:38:05;;;;;;;16.95;9.73;;;;;;;9.49;87.50;94724.79;1710555;83;21254;-51
2021/06/06 03:40:37;;;;;;;14.15;9.05;;;;;;;9.48;87.02;94722.66;1689438;83;20953;-52
2021/06/06 03:43:11;;;;;;;11.95;9.28;;;;;;;9.47;86.74;94727.97;1690019;83;21436;-52
2021/06/06 03:45:41;;;;;;;16.87;8.75;;;;;;;9.45;86.81;94724.14;1681248;83;20965;-51
2021/06/06 03:48:08;;;;;;;18.42;8.58;;;;;;;9.47;86.62;94730.70;1690929;83;21013;-51
2021/06/06 03:50:39;;;;;;;17.77;9.90;;;;;;;9.46;86.17;94731.16;1692351;83;21829;-51
2021/06/06 03:53:06;;;;;;;10.32;8.95;;;;;;;9.42;86.23;94731.89;1696612;83;21593;-50
2021/06/06 03:55:34;;;;;;;12.05;9.35;;;;;;;9.43;86.54;94723.81;1693751;83;21059;-51
2021/06/06 03:58:02;;;;;;;25.88;14.70;;;;;;;9.53;86.63;94728.19;1699490;83;20963;-51
2021/06/06 04:00:38;;;;;;;16.15;11.63;;;;;;;9.57;86.49;94721.38;1715070;83;21064;-51
2021/06/06 04:03:08;;;;;;;16.12;11.70;;;;;;;9.59;86.74;94718.20;1702068;83;21789;-51
2021/06/06 04:05:36;;;;;;;15.38;11.53;;;;;;;9.66;87.03;94717.34;1704678;83;21009;-51
2021/06/06 04:08:05;;;;;;;14.80;10.93;;;;;;;9.77;87.31;94720.52;1697393;83;21105;-51
2021/06/06 04:10:33;;;;;;;12.47;9.50;;;;;;;9.91;87.42;94711.05;1703592;82;20968;-51
2021/06/06 04:13:02;;;;;;;14.50;11.63;;;;;;;10.09;87.48;94713.41;1690905;83;21045;-51
2021/06/06 04:15:30;;;;;;;15.68;11.48;;;;;;;10.24;86.97;94708.95;1702362;83;21925;-51
2021/06/06 04:18:12;;;;;;;19.10;10.90;;;;;;;10.37;86.45;94714.41;1700918;83;21044;-51
2021/06/06 04:20:41;;;;;;;21.55;11.43;;;;;;;10.40;85.95;94710.16;1692134;83;22771;-51
2021/06/06 04:23:10;;;;;;;20.08;11.33;;;;;;;10.44;85.69;94707.27;1694685;83;21443;-51
2021/06/06 04:25:38;;;;;;;18.40;10.50;;;;;;;10.52;85.98;94704.44;1705160;83;21109;-52
2021/06/06 04:28:06;;;;;;;13.55;8.55;;;;;;;10.61;85.63;94705.88;1670541;84;21154;-51
2021/06/06 04:30:35;;;;;;;14.55;9.18;;;;;;;10.63;85.40;94702.84;1700625;83;21098;-51
2021/06/06 04:33:07;;;;;;;10.20;8.58;;;;;;;10.62;85.21;94706.03;1693734;83;21092;-51
2021/06/06 04:35:32;;;;;;;12.60;9.60;;;;;;;10.56;85.08;94703.70;1708118;83;20988;-51
2021/06/06 04:37:59;;;;;;;8.13;7.33;;;;;;;10.53;85.43;94705.97;1713936;83;20947;-51
2021/06/06 04:40:26;;;;;;;7.78;6.83;;;;;;;10.56;85.62;94710.58;1709216;83;21150;-51
2021/06/06 04:42:52;;;;;;;8.75;7.20;;;;;;;10.58;85.61;94710.89;1686883;83;20966;-52
2021/06/06 04:45:19;;;;;;;18.92;7.37;;;;;;;10.61;85.66;94709.99;1696887;83;21001;-52
2021/06/06 04:47:48;;;;;;;11.55;6.62;;;;;;;10.63;85.76;94706.97;1696876;83;21020;-52
2021/06/06 04:50:15;;;;;;;15.03;7.40;;;;;;;10.70;85.81;94705.32;1716647;83;21016;-51
2021/06/06 04:52:43;;;;;;;14.00;8.10;;;;;;;10.80;85.89;94707.69;1698244;83;21175;-51
2021/06/06 04:55:15;;;;;;;9.15;7.08;;;;;;;10.94;85.85;94701.66;1690412;83;20962;-51
2021/06/06 04:57:43;;;;;;;7.58;6.87;;;;;;;11.08;85.36;94705.86;1693684;83;21056;-52
2021/06/06 05:00:19;;;;;;;6.72;6.12;;;;;;;11.14;85.22;94700.70;1699184;83;20980;-53
2021/06/06 05:02:48;;;;;;;14.07;6.50;;;;;;;11.24;84.90;94694.63;1692497;83;20966;-53
2021/06/06 05:05:18;;;;;;;8.35;7.58;;;;;;;11.36;84.77;94694.52;1677527;83;21271;-53
2021/06/06 05:07:53;;;;;;;10.45;8.58;;;;;;;11.43;84.81;94694.26;1689822;83;20970;-52
2021/06/06 05:10:22;;;;;;;29.07;8.95;;;;;;;11.53;84.58;94689.55;1689775;83;21037;-52
2021/06/06 05:12:49;;;;;;;11.93;9.03;;;;;;;11.62;84.50;94685.45;1667053;83;21406;-51
2021/06/06 05:15:18;;;;;;;15.03;9.78;;;;;;;11.71;84.55;94687.63;1673139;83;21002;-53
2021/06/06 05:17:45;;;;;;;15.72;8.73;;;;;;;11.84;84.57;94695.77;1701372;83;22235;-51
2021/06/06 05:20:15;;;;;;;10.82;7.17;;;;;;;12.01;84.22;94695.66;1694068;83;21525;-51
2021/06/06 05:22:42;;;;;;;10.20;6.80;;;;;;;12.13;83.43;94696.92;1711390;83;22867;-50
2021/06/06 05:25:12;;;;;;;8.58;6.33;;;;;;;12.18;82.88;94688.63;1685370;83;21042;-52
2021/06/06 05:27:39;;;;;;;7.65;6.67;;;;;;;12.26;82.32;94687.87;1697665;83;20978;-52
2021/06/06 05:30:08;;;;;;;15.18;8.15;;;;;;;12.40;81.87;94686.48;1688181;83;21217;-52
2021/06/06 05:32:35;;;;;;;7.72;6.85;;;;;;;12.54;81.69;94682.52;1685149;83;21030;-52
2021/06/06 05:35:03;;;;;;;9.38;7.33;;;;;;;12.67;81.52;94683.89;1694398;83;21022;-51
2021/06/06 05:37:31;;;;;;;8.85;7.12;;;;;;;12.79;81.05;94682.95;1708085;83;21060;-51
2021/06/06 05:39:58;;;;;;;8.10;6.22;;;;;;;12.91;80.14;94686.14;1706163;83;21012;-51
2021/06/06 05:42:25;;;;;;;8.28;6.80;;;;;;;12.99;79.37;94682.47;1706978;83;21139;-52
2021/06/06 05:44:51;;;;;;;8.05;6.60;;;;;;;13.01;78.96;94680.80;1683446;83;21038;-51
2021/06/06 05:47:18;;;;;;;9.40;6.92;;;;;;;13.10;78.98;94674.48;1712221;83;21012;-52
2021/06/06 05:49:46;;;;;;;14.78;9.70;;;;;;;13.22;78.93;94672.13;1704976;83;21015;-53
2021/06/06 05:52:15;;;;;;;8.88;7.95;;;;;;;13.39;79.04;94675.45;1701144;83;21505;-51
2021/06/06 05:54:41;;;;;;;10.65;6.55;;;;;;;13.53;78.97;94674.01;1711747;83;21195;-53
2021/06/06 05:57:09;;;;;;;10.05;7.58;;;;;;;13.67;78.64;94665.05;1700677;83;20960;-52
2021/06/06 05:59:36;;;;;;;14.78;7.80;;;;;;;13.79;78.40;94666.83;1700722;83;21492;-52
2021/06/06 06:02:05;;;;;;;15.30;7.20;;;;;;;13.92;78.09;94672.87;1687883;83;21171;-55
2021/06/06 06:04:32;;;;;;;9.53;6.72;;;;;;;14.01;77.03;94670.08;1665519;83;21434;-54
2021/06/06 06:06:59;;;;;;;9.05;6.05;;;;;;;14.05;77.12;94672.81;1679378;83;21926;-52
2021/06/06 06:09:28;;;;;;;19.62;6.75;;;;;;;14.14;77.08;94666.46;1700490;83;21056;-51
2021/06/06 06:11:54;;;;;;;9.48;5.92;;;;;;;14.26;76.75;94668.23;1703094;83;21492;-51
2021/06/06 06:14:21;;;;;;;8.30;6.37;;;;;;;14.38;76.15;94671.38;1693289;83;20968;-52
2021/06/06 06:16:49;;;;;;;6.50;5.75;;;;;;;14.48;75.53;94665.30;1691280;83;21493;-51
2021/06/06 06:19:18;;;;;;;9.53;5.97;;;;;;;14.58;74.93;94664.74;1682157;83;21573;-52
2021/06/06 06:21:46;;;;;;;6.80;5.90;;;;;;;14.71;74.05;94662.48;1697620;83;21072;-54
2021/06/06 06:24:13;;;;;;;11.38;5.28;;;;;;;14.76;73.20;94659.05;1709570;83;20980;-53
2021/06/06 06:26:40;;;;;;;6.83;5.67;;;;;;;14.80;72.58;94664.41;1705022;83;21008;-53
2021/06/06 06:29:20;;;;;;;14.18;5.65;;;;;;;14.82;72.79;94659.16;1698039;83;20967;-53
2021/06/06 06:31:52;;;;;;;5.40;4.90;;;;;;;14.95;73.30;94666.55;1701580;83;21215;-52
2021/06/06 06:34:30;;;;;;;8.75;5.35;;;;;;;15.08;73.14;94663.66;1709028;83;20999;-53
2021/06/06 06:37:00;;;;;;;7.97;4.62;;;;;;;15.16;72.62;94662.02;1709409;83;20985;-52
2021/06/06 06:39:27;;;;;;;11.20;5.12;;;;;;;15.17;71.65;94664.94;1704936;83;21092;-52
2021/06/06 06:41:53;;;;;;;15.50;5.08;;;;;;;15.18;71.87;94661.55;1686247;83;20984;-52
2021/06/06 06:44:20;;;;;;;6.78;4.95;;;;;;;15.26;71.86;94663.46;1702831;83;21147;-51
2021/06/06 06:46:49;;;;;;;12.50;5.70;;;;;;;15.32;71.66;94659.43;1692758;83;20954;-52
2021/06/06 06:49:16;;;;;;;6.75;5.30;;;;;;;15.41;71.14;94660.09;1706481;83;21127;-53
2021/06/06 06:51:43;;;;;;;4.87;4.47;;;;;;;15.47;70.92;94660.16;1707604;83;21047;-53
2021/06/06 06:54:10;;;;;;;7.10;4.60;;;;;;;15.53;71.01;94650.68;1706916;83;21527;-52
2021/06/06 06:56:36;;;;;;;12.55;5.55;;;;;;;15.68;71.08;94644.48;1720702;83;21165;-54
2021/06/06 06:59:04;;;;;;;36.55;5.50;;;;;;;15.89;70.82;94648.07;1696853;83;21522;-54
2021/06/06 07:01:31;;;;;;;5.92;5.10;;;;;;;16.05;70.30;94641.35;1717180;83;21479;-53
2021/06/06 07:03:58;;;;;;;5.30;4.17;;;;;;;16.21;69.21;94646.36;1705854;83;21086;-52
2021/06/06 07:06:26;;;;;;;5.28;4.40;;;;;;;16.33;68.18;94645.26;1692221;83;21730;-54
2021/06/06 07:08:52;;;;;;;10.90;8.25;;;;;;;16.42;67.77;94644.52;1689542;83;21512;-53
2021/06/06 07:11:22;;;;;;;4.72;3.85;;;;;;;16.57;68.51;94645.81;1690563;83;20935;-54
2021/06/06 07:13:49;;;;;;;6.20;4.30;;;;;;;16.72;67.64;94640.30;1699224;83;21042;-54
2021/06/06 07:16:18;;;;;;;4.40;4.00;;;;;;;16.92;67.88;94642.28;1701122;83;21067;-53
2021/06/06 07:18:48;;;;;;;7.37;5.80;;;;;;;17.13;67.28;94646.53;1691506;83;21010;-53
2021/06/06 07:21:21;;;;;;;17.32;8.43;;;;;;;17.36;67.30;94640.70;1697479;84;21846;-53
2021/06/06 07:23:51;;;;;;;9.73;5.67;;;;;;;17.58;65.36;94641.48;1703692;83;21629;-55
2021/06/06 07:26:24;;;;;;;5.75;4.33;;;;;;;17.83;63.74;94644.84;1701567;83;20990;-55
2021/06/06 07:28:55;;;;;;;8.63;4.53;;;;;;;18.04;62.63;94645.59;1687241;83;21025;-53
2021/06/06 07:31:22;;;;;;;5.80;4.33;;;;;;;18.20;61.28;94648.49;1705418;83;20979;-53
2021/06/06 07:33:49;;;;;;;6.33;4.90;;;;;;;18.33;61.33;94646.06;1702942;83;21023;-52
2021/06/06 07:36:18;;;;;;;7.35;4.70;;;;;;;18.43;61.19;94644.58;1698915;83;21128;-53
2021/06/06 07:38:50;;;;;;;9.80;7.47;;;;;;;18.52;59.86;94641.59;1700876;83;21047;-52
2021/06/06 07:41:21;;;;;;;7.57;5.50;;;;;;;18.54;59.96;94646.02;1689673;83;21014;-51
2021/06/06 07:43:50;;;;;;;10.35;5.12;;;;;;;18.53;59.79;94638.93;1694009;83;21105;-52
2021/06/06 07:46:18;;;;;;;12.05;5.70;;;;;;;18.53;59.73;94637.53;1701600;83;21202;-53
2021/06/06 07:48:45;;;;;;;8.25;4.70;;;;;;;18.57;59.26;94633.88;1706087;83;21517;-53
2021/06/06 07:51:12;;;;;;;10.30;4.35;;;;;;;18.62;58.86;94633.12;1701381;83;20983;-56
2021/06/06 07:53:39;;;;;;;13.53;4.50;;;;;;;18.63;57.91;94634.64;1701017;83;21080;-55
2021/06/06 07:56:06;;;;;;;6.95;4.35;;;;;;;18.65;57.76;94638.33;1699742;83;21113;-54
2021/06/06 07:58:38;;;;;;;9.05;4.40;;;;;;;18.64;57.79;94638.95;1695621;83;22335;-53
2021/06/06 08:01:06;;;;;;;8.23;5.70;;;;;;;18.59;58.16;94634.13;1697628;83;21555;-55
2021/06/06 08:03:34;;;;;;;8.90;5.10;;;;;;;18.55;58.11;94632.22;1696907;83;20983;-53
2021/06/06 08:06:02;;;;;;;5.95;4.12;;;;;;;18.61;58.23;94642.75;1697574;83;21072;-53
2021/06/06 08:08:29;;;;;;;5.67;4.25;;;;;;;18.77;57.43;94637.86;1695488;83;21152;-53
2021/06/06 08:11:00;;;;;;;3.77;3.40;;;;;;;18.96;55.61;94638.14;1703267;83;20999;-53
2021/06/06 08:13:28;;;;;;;4.78;4.12;;;;;;;19.11;54.19;94640.09;1674426;83;21071;-53
2021/06/06 08:15:58;;;;;;;24.30;5.30;;;;;;;19.18;54.53;94644.56;1697486;83;21632;-54
2021/06/06 08:18:32;;;;;;;5.58;4.17;;;;;;;19.18;54.00;94641.77;1700956;83;20990;-52
2021/06/06 08:21:13;;;;;;;12.63;4.70;;;;;;;19.14;54.21;94640.47;1706227;83;20999;-53
2021/06/06 08:23:41;;;;;;;4.90;4.10;;;;;;;19.13;54.79;94638.33;1705191;83;21172;-51
2021/06/06 08:26:08;;;;;;;5.75;5.25;;;;;;;19.19;54.29;94644.69;1698438;83;21091;-57
2021/06/06 08:28:36;;;;;;;7.10;6.47;;;;;;;19.26;54.13;94644.22;1689997;83;21026;-53
2021/06/06 08:31:10;;;;;;;7.15;4.47;;;;;;;19.37;54.01;94642.81;1704487;83;21031;-53
2021/06/06 08:33:38;;;;;;;8.27;4.73;;;;;;;19.53;54.38;94639.27;1702713;83;21017;-53
2021/06/06 08:36:16;;;;;;;8.08;4.00;;;;;;;19.72;53.73;94638.88;1698450;83;21377;-53
2021/06/06 08:38:44;;;;;;;10.63;3.47;;;;;;;19.90;52.52;94638.36;1709025;83;21101;-53
2021/06/06 08:41:31;;;;;;;10.32;4.00;;;;;;;20.02;51.52;94638.50;1690157;83;21136;-53
2021/06/06 08:44:11;;;;;;;9.55;3.55;;;;;;;20.04;50.19;94648.53;1685403;83;21548;-53
2021/06/06 08:47:02;;;;;;;4.50;3.35;;;;;;;20.06;49.87;94638.22;1679217;83;21026;-53
2021/06/06 08:49:43;;;;;;;12.53;3.70;;;;;;;20.07;50.73;94640.52;1671099;83;21988;-54
2021/06/06 08:52:48;;;;;;;5.60;2.87;;;;;;;20.11;49.34;94640.27;1695426;83;20954;-53
2021/06/06 08:55:42;;;;;;;6.35;4.17;;;;;;;20.12;46.83;94641.13;1702913;83;21505;-54
2021/06/06 08:58:38;;;;;;;6.67;3.47;;;;;;;20.12;48.73;94648.77;1677611;83;20995;-53
2021/06/06 09:01:23;;;;;;;11.57;3.83;;;;;;;20.18;48.07;94646.84;1701346;83;21594;-52
2021/06/06 09:03:50;;;;;;;4.37;2.95;;;;;;;20.35;46.63;94651.00;1698354;83;21415;-53
2021/06/06 09:06:42;;;;;;;6.10;3.05;;;;;;;20.49;46.82;94649.92;1691004;83;21493;-55
2021/06/06 09:09:09;;;;;;;4.30;3.17;;;;;;;20.54;46.60;94647.11;1705607;83;21066;-54
2021/06/06 09:11:36;;;;;;;6.55;3.85;;;;;;;20.63;47.49;94646.84;1693531;83;21050;-53
2021/06/06 09:14:05;;;;;;;7.22;2.90;;;;;;;20.65;44.86;94649.10;1687603;83;21033;-54
2021/06/06 09:16:37;;;;;;;4.45;2.85;;;;;;;20.66;46.27;94645.80;1700875;83;21115;-54
2021/06/06 09:19:12;;;;;;;4.28;3.52;;;;;;;20.67;45.89;94650.74;1681300;83;21035;-54
2021/06/06 09:21:59;;;;;;;5.90;3.75;;;;;;;20.54;45.81;94652.70;1700529;83;21074;-53
2021/06/06 09:24:38;;;;;;;5.08;3.25;;;;;;;20.41;46.91;94654.53;1701433;83;21061;-54
2021/06/06 09:27:22;;;;;;;4.92;3.80;;;;;;;20.27;46.68;94658.37;1699267;83;21070;-54
2021/06/06 09:30:11;;;;;;;12.03;4.45;;;;;;;20.19;47.55;94653.20;1698559;83;21086;-53
2021/06/06 09:32:38;;;;;;;8.83;4.10;;;;;;;20.19;48.37;94653.95;1704588;83;21480;-53
2021/06/06 09:35:23;;;;;;;4.83;3.27;;;;;;;20.30;48.80;94658.13;1695492;83;21085;-52
2021/06/06 09:37:57;;;;;;;3.92;3.08;;;;;;;20.37;49.48;94661.03;1711174;83;21454;-54
2021/06/06 09:40:37;;;;;;;5.45;3.85;;;;;;;20.51;50.17;94655.13;1683183;83;20963;-55
2021/06/06 09:43:04;;;;;;;6.30;3.65;;;;;;;20.78;49.29;94646.52;1696031;84;21109;-53
2021/06/06 09:45:35;;;;;;;9.48;4.05;;;;;;;21.10;49.80;94650.45;1686586;83;21542;-55
2021/06/06 09:48:16;;;;;;;5.75;3.77;;;;;;;21.41;49.49;94660.55;1701965;83;20993;-55
2021/06/06 09:50:47;;;;;;;4.40;3.12;;;;;;;21.78;47.47;94648.83;1692318;83;21073;-54
2021/06/06 09:53:23;;;;;;;5.97;3.50;;;;;;;22.07;47.80;94646.05;1703211;84;21062;-53
2021/06/06 09:55:49;;;;;;;5.33;4.00;;;;;;;22.35;46.72;94642.30;1695796;83;21942;-55
2021/06/06 09:58:31;;;;;;;5.03;3.87;;;;;;;22.41;47.27;94642.39;1707679;83;21022;-55
2021/06/06 10:01:29;;;;;;;5.17;3.10;;;;;;;22.24;46.49;94648.78;1690710;83;21046;-54
2021/06/06 10:04:04;;;;;;;4.58;3.55;;;;;;;22.07;47.57;94645.39;1697161;84;21195;-54
2021/06/06 10:06:36;;;;;;;10.05;3.83;;;;;;;22.02;47.96;94644.69;1690531;83;21090;-54
2021/06/06 10:09:23;;;;;;;9.70;3.33;;;;;;;22.14;48.26;94644.05;1694235;83;21199;-54
2021/06/06 10:12:08;;;;;;;7.80;3.40;;;;;;;22.41;48.31;94631.18;1701425;83;21246;-53
2021/06/06 10:14:56;;;;;;;4.85;3.50;;;;;;;22.71;47.56;94626.87;1677557;83;21003;-53
2021/06/06 10:17:43;;;;;;;7.10;3.17;;;;;;;22.87;44.78;94621.04;1702887;83;21518;-54
2021/06/06 10:20:31;;;;;;;3.45;2.60;;;;;;;22.91;45.15;94620.75;1702234;83;21019;-54
2021/06/06 10:23:24;;;;;;;5.03;3.40;;;;;;;23.10;45.58;94624.31;1687742;83;21466;-54
2021/06/06 10:26:07;;;;;;;7.83;3.45;;;;;;;23.23;44.30;94623.77;1695273;83;21101;-53
2021/06/06 10:28:44;;;;;;;5.60;3.40;;;;;;;23.19;44.17;94631.73;1706243;83;20967;-54
2021/06/06 10:31:31;;;;;;;4.78;3.40;;;;;;;23.11;45.38;94628.64;1703758;83;21014;-54
2021/06/06 10:34:25;;;;;;;5.12;2.98;;;;;;;22.98;43.84;94627.18;1690830;83;21168;-53
2021/06/06 10:36:52;;;;;;;6.35;3.45;;;;;;;22.80;42.44;94620.91;1694881;84;21143;-53
2021/06/06 10:39:26;;;;;;;4.90;2.92;;;;;;;22.51;43.41;94616.90;1687064;83;21073;-53
2021/06/06 10:42:01;;;;;;;6.42;5.75;;;;;;;22.39;42.89;94614.75;1695400;83;21051;-54
2021/06/06 10:44:54;;;;;;;4.70;3.80;;;;;;;22.21;42.68;94622.44;1693683;83;20986;-53
2021/06/06 10:47:29;;;;;;;6.85;3.77;;;;;;;21.98;44.17;94620.41;1659169;83;21446;-53
2021/06/06 10:50:01;;;;;;;4.28;3.00;;;;;;;21.84;44.72;94625.09;1703129;83;21010;-54
2021/06/06 10:52:32;;;;;;;15.13;3.52;;;;;;;21.72;44.79;94620.89;1702409;83;21015;-53
2021/06/06 10:55:24;;;;;;;3.70;2.95;;;;;;;21.61;44.84;94616.75;1694045;83;21498;-55
2021/06/06 10:57:51;;;;;;;6.47;3.12;;;;;;;21.68;45.05;94618.25;1696534;83;21455;-53
2021/06/06 11:00:42;;;;;;;8.48;3.90;;;;;;;21.60;45.69;94621.45;1681404;83;21074;-53
2021/06/06 11:03:17;;;;;;;7.90;3.30;;;;;;;21.45;45.53;94615.48;1710473;83;21180;-55
2021/06/06 11:05:49;;;;;;;4.92;4.37;;;;;;;21.36;45.17;94628.39;1702266;83;20978;-54
2021/06/06 11:08:31;;;;;;;5.15;3.37;;;;;;;21.33;45.22;94624.58;1691905;83;21515;-53
2021/06/06 11:11:16;;;;;;;3.58;2.95;;;;;;;21.65;45.69;94628.45;1693137;83;21543;-54
2021/06/06 11:13:55;;;;;;;6.00;3.00;;;;;;;22.35;44.98;94612.87;1654023;85;21034;-54
2021/06/06 11:16:36;;;;;;;3.35;2.60;;;;;;;23.24;41.83;94604.22;1628985;86;21449;-53
2021/06/06 11:19:15;;;;;;;3.30;2.80;;;;;;;24.05;37.74;94606.27;1687218;83;20957;-53
2021/06/06 11:22:05;;;;;;;2.42;2.15;;;;;;;24.77;38.70;94607.08;1688679;83;21081;-54
2021/06/06 11:24:45;;;;;;;5.45;2.22;;;;;;;25.02;35.52;94612.55;1700523;83;20995;-54
2021/06/06 11:27:22;;;;;;;4.53;3.05;;;;;;;25.25;35.45;94607.97;1688751;83;21094;-53
2021/06/06 11:30:22;;;;;;;3.72;2.40;;;;;;;25.21;34.91;94605.50;1695772;83;21772;-53
2021/06/06 11:32:59;;;;;;;3.62;2.98;;;;;;;25.20;35.16;94602.58;1685932;83;20986;-55
2021/06/06 11:35:36;;;;;;;5.50;2.47;;;;;;;25.25;35.35;94606.56;1707511;83;21018;-54
2021/06/06 11:38:36;;;;;;;3.20;2.45;;;;;;;25.07;33.97;94602.58;1695483;83;21025;-54
2021/06/06 11:41:31;;;;;;;3.15;2.60;;;;;;;24.58;36.34;94594.52;1702643;83;21137;-54
2021/06/06 11:44:25;;;;;;;10.58;3.20;;;;;;;24.50;38.35;94590.05;1685953;83;21167;-53
2021/06/06 11:47:08;;;;;;;8.90;2.58;;;;;;;24.79;37.29;94579.14;1691181;83;21558;-54
2021/06/06 11:50:10;;;;;;;5.25;2.10;;;;;;;25.42;36.40;94569.67;1697049;83;20982;-55
2021/06/06 11:53:00;;;;;;;6.60;2.22;;;;;;;26.16;35.28;94566.77;1686776;83;21026;-54
2021/06/06 11:55:32;;;;;;;8.28;2.55;;;;;;;26.66;34.16;94564.03;1687770;83;21057;-57
2021/06/06 11:58:22;;;;;;;3.62;2.12;;;;;;;26.83;32.86;94553.76;1697154;83;26460;-58
2021/06/06 12:00:58;;;;;;;4.53;2.10;;;;;;;26.57;32.39;94554.02;1687069;83;21466;-55
2021/06/06 12:03:29;;;;;;;5.42;2.37;;;;;;;26.08;32.90;94561.74;1698638;83;21012;-54